Time;durP1;ratioP1;P1;durP2;ratioP2;P2;SDS_P1;SDS_P2;PMS_P1;PMS_P2;Temp;Humidity;BMP_temperature;BMP_pressure;BME280_temperature;BME280_humidity;BME280_pressure;Samples;Min_cycle;Max_cycle;Signal;HPM_P1;HPM_P2
2024/01/21 00:00:12;;;;;;;3.30;3.10;;;5.50;46.70;;;;;;4892124;29;20232;-69
2024/01/21 00:02:38;;;;;;;3.00;2.80;;;5.50;46.90;;;;;;4890978;29;20445;-69
2024/01/21 00:05:04;;;;;;;2.83;2.63;;;5.60;47.40;;;;;;4881941;29;20421;-61
2024/01/21 00:07:30;;;;;;;2.93;2.73;;;5.60;48.30;;;;;;4889131;29;20952;-69
2024/01/21 00:09:55;;;;;;;2.50;2.30;;;5.70;48.70;;;;;;4886644;29;20492;-69
2024/01/21 00:12:21;;;;;;;3.27;3.07;;;5.70;48.60;;;;;;4892722;29;20263;-69
2024/01/21 00:14:47;;;;;;;2.60;2.50;;;5.80;49.70;;;;;;4890946;29;20191;-69
2024/01/21 00:17:13;;;;;;;2.73;2.63;;;5.80;48.40;;;;;;4888352;29;20187;-68
2024/01/21 00:19:39;;;;;;;2.90;2.70;;;5.80;47.50;;;;;;4888474;29;20488;-69
2024/01/21 00:22:05;;;;;;;2.80;2.60;;;5.70;45.90;;;;;;4889141;29;20186;-62
2024/01/21 00:24:31;;;;;;;2.93;2.73;;;5.80;46.30;;;;;;4864514;29;20654;-67
2024/01/21 00:26:57;;;;;;;3.03;2.83;;;5.60;45.30;;;;;;4890347;29;20403;-69
2024/01/21 00:29:23;;;;;;;3.23;2.53;;;5.60;46.00;;;;;;4890066;29;20306;-69
2024/01/21 00:31:49;;;;;;;2.67;2.53;;;5.40;45.30;;;;;;4895557;29;20181;-69
2024/01/21 00:34:14;;;;;;;2.83;2.70;;;5.40;45.90;;;;;;4884064;29;20544;-69
2024/01/21 00:36:40;;;;;;;2.57;2.47;;;5.20;45.60;;;;;;4880789;29;20279;-69
2024/01/21 00:39:06;;;;;;;3.30;2.70;;;5.20;46.20;;;;;;4864102;29;20203;-62
2024/01/21 00:41:31;;;;;;;3.20;2.90;;;5.40;47.20;;;;;;4880120;29;20176;-69
2024/01/21 00:43:57;;;;;;;4.73;4.30;;;5.30;46.00;;;;;;4884603;29;20216;-68
2024/01/21 00:46:23;;;;;;;4.30;3.90;;;5.40;46.20;;;;;;4898606;29;20239;-69
2024/01/21 00:48:49;;;;;;;3.07;2.77;;;5.50;46.60;;;;;;4899244;29;20207;-69
2024/01/21 00:51:15;;;;;;;3.97;2.97;;;5.60;46.90;;;;;;4898488;29;20416;-69
2024/01/21 00:53:41;;;;;;;3.30;3.10;;;5.70;48.50;;;;;;4882622;29;20544;-69
2024/01/21 00:56:07;;;;;;;2.80;2.60;;;5.70;47.00;;;;;;4880940;29;20432;-61
2024/01/21 00:58:32;;;;;;;3.03;2.83;;;5.80;47.20;;;;;;4894445;29;20625;-68
2024/01/21 01:00:58;;;;;;;3.20;3.00;;;5.80;47.50;;;;;;4884945;29;20225;-69
2024/01/21 01:03:24;;;;;;;4.13;3.07;;;5.80;46.80;;;;;;4880723;29;20180;-68
2024/01/21 01:05:50;;;;;;;3.60;3.30;;;5.80;47.20;;;;;;4897874;29;20249;-69
2024/01/21 01:08:17;;;;;;;4.63;3.40;;;5.70;48.80;;;;;;4892402;29;20779;-69
2024/01/21 01:10:43;;;;;;;3.53;3.23;;;5.50;47.70;;;;;;4884502;29;20424;-69
2024/01/21 01:13:09;;;;;;;3.30;2.87;;;5.70;48.10;;;;;;4896524;29;20433;-61
2024/01/21 01:15:35;;;;;;;3.67;3.37;;;5.90;49.70;;;;;;4895378;29;20443;-69
2024/01/21 01:18:02;;;;;;;4.00;3.60;;;5.70;49.40;;;;;;4881596;29;20235;-69
2024/01/21 01:20:27;;;;;;;4.07;2.95;;;5.40;48.00;;;;;;4897958;29;20419;-68
2024/01/21 01:22:53;;;;;;;3.70;3.40;;;5.40;48.80;;;;;;4881770;29;20187;-69
2024/01/21 01:25:19;;;;;;;3.47;3.27;;;5.40;48.70;;;;;;4897957;29;20239;-68
2024/01/21 01:27:45;;;;;;;3.87;3.57;;;5.40;49.10;;;;;;4895348;29;20444;-69
2024/01/21 01:30:11;;;;;;;4.37;3.57;;;5.50;49.00;;;;;;4883416;29;20272;-62
2024/01/21 01:32:37;;;;;;;3.95;3.40;;;5.40;48.50;;;;;;4890923;29;20206;-69
2024/01/21 01:35:04;;;;;;;3.33;3.13;;;5.30;48.60;;;;;;4884984;29;20588;-69
2024/01/21 01:37:31;;;;;;;4.15;3.75;;;5.40;48.30;;;;;;4893529;29;20177;-69
2024/01/21 01:39:56;;;;;;;3.63;3.33;;;5.50;48.30;;;;;;4885893;29;20180;-70
2024/01/21 01:42:22;;;;;;;3.63;3.33;;;5.60;48.70;;;;;;4894645;29;20405;-69
2024/01/21 01:44:48;;;;;;;4.20;3.80;;;5.60;49.10;;;;;;4894230;29;20537;-69
2024/01/21 01:47:13;;;;;;;4.27;3.87;;;5.60;48.20;;;;;;4886311;29;20182;-66
2024/01/21 01:49:42;;;;;;;4.17;3.87;;;5.30;47.60;;;;;;4878435;29;20208;-69
2024/01/21 01:52:12;;;;;;;4.18;3.53;;;5.40;48.00;;;;;;4894353;29;21033;-68
2024/01/21 01:54:39;;;;;;;3.60;3.30;;;5.60;48.70;;;;;;4893406;29;20184;-69
2024/01/21 01:57:07;;;;;;;4.72;3.65;;;5.80;49.00;;;;;;4886607;29;20228;-68
2024/01/21 01:59:34;;;;;;;4.07;3.53;;;5.70;48.10;;;;;;4892090;29;20714;-68
2024/01/21 02:02:00;;;;;;;3.50;3.30;;;5.80;50.30;;;;;;4887711;29;20399;-68
2024/01/21 02:04:26;;;;;;;3.60;3.30;;;5.80;50.00;;;;;;4890762;29;20511;-68
2024/01/21 02:06:52;;;;;;;3.50;3.20;;;5.70;47.80;;;;;;4875904;29;20184;-69
2024/01/21 02:09:18;;;;;;;3.70;3.50;;;5.70;50.00;;;;;;4884811;29;20223;-68
2024/01/21 02:11:44;;;;;;;3.90;3.60;;;5.70;48.20;;;;;;4894255;29;20778;-69
2024/01/21 02:14:11;;;;;;;3.77;3.57;;;5.80;47.50;;;;;;4894442;29;20464;-68
2024/01/21 02:16:37;;;;;;;3.80;3.60;;;5.70;47.20;;;;;;4895857;29;20228;-68
2024/01/21 02:19:10;;;;;;;3.30;3.00;;;5.70;47.20;;;;;;4878917;29;20458;-68
2024/01/21 02:21:36;;;;;;;3.90;3.57;;;5.60;47.40;;;;;;4878581;29;20178;-68
2024/01/21 02:24:02;;;;;;;4.50;3.80;;;5.50;47.60;;;;;;4878975;29;20446;-68
2024/01/21 02:26:28;;;;;;;4.17;3.40;;;5.40;47.50;;;;;;4878494;29;20421;-68
2024/01/21 02:28:54;;;;;;;4.17;3.50;;;5.50;47.90;;;;;;4878757;29;20463;-68
2024/01/21 02:31:19;;;;;;;3.97;3.57;;;5.30;48.00;;;;;;4894724;29;20194;-67
2024/01/21 02:33:45;;;;;;;3.60;3.30;;;5.30;48.20;;;;;;4897579;29;20187;-68
2024/01/21 02:36:11;;;;;;;3.50;3.20;;;5.20;47.80;;;;;;4897496;29;20183;-69
2024/01/21 02:38:36;;;;;;;3.83;3.53;;;5.30;47.80;;;;;;4897007;29;20180;-68
2024/01/21 02:41:02;;;;;;;4.67;3.70;;;5.40;47.80;;;;;;4888631;29;20180;-68
2024/01/21 02:43:28;;;;;;;3.43;3.13;;;5.50;47.90;;;;;;4894659;29;20186;-66
2024/01/21 02:45:54;;;;;;;4.63;4.10;;;5.40;47.50;;;;;;4880318;29;20420;-68
2024/01/21 02:48:19;;;;;;;3.73;3.33;;;5.60;48.00;;;;;;4885293;29;20188;-68
2024/01/21 02:50:45;;;;;;;3.97;3.67;;;5.50;47.70;;;;;;4885997;29;20202;-68
2024/01/21 02:53:11;;;;;;;4.17;3.77;;;5.40;47.90;;;;;;4893849;29;20254;-68
2024/01/21 02:55:36;;;;;;;3.37;3.07;;;5.40;47.50;;;;;;4885140;29;20813;-68
2024/01/21 02:58:02;;;;;;;3.63;3.33;;;5.30;48.30;;;;;;4888769;29;20231;-67
2024/01/21 03:00:28;;;;;;;4.33;3.93;;;5.40;48.10;;;;;;4890519;29;20185;-68
2024/01/21 03:02:54;;;;;;;4.30;3.60;;;5.60;49.20;;;;;;4886111;29;20834;-68
2024/01/21 03:05:19;;;;;;;4.07;3.60;;;5.60;48.80;;;;;;4896339;29;20183;-67
2024/01/21 03:07:45;;;;;;;4.20;3.70;;;5.50;48.20;;;;;;4897177;29;20177;-69
2024/01/21 03:10:11;;;;;;;4.17;3.77;;;5.50;48.30;;;;;;4878676;29;20259;-68
2024/01/21 03:12:37;;;;;;;3.40;3.20;;;5.40;48.30;;;;;;4877923;29;20172;-68
2024/01/21 03:15:04;;;;;;;3.87;3.57;;;5.40;48.50;;;;;;4878357;29;20180;-68
2024/01/21 03:17:30;;;;;;;5.30;3.73;;;5.40;48.90;;;;;;4877777;29;20189;-68
2024/01/21 03:19:55;;;;;;;3.83;3.40;;;5.20;48.30;;;;;;4879960;29;20387;-68
2024/01/21 03:22:21;;;;;;;3.47;3.17;;;5.30;48.80;;;;;;4895942;29;20212;-68
2024/01/21 03:24:47;;;;;;;3.63;3.43;;;5.40;49.80;;;;;;4881936;29;20193;-68
2024/01/21 03:27:13;;;;;;;4.33;3.93;;;5.60;49.20;;;;;;4882144;29;20545;-68
2024/01/21 03:29:39;;;;;;;3.80;3.50;;;5.50;48.70;;;;;;4896616;29;20318;-67
2024/01/21 03:32:05;;;;;;;3.70;3.40;;;5.50;48.90;;;;;;4899247;29;20572;-68
2024/01/21 03:34:31;;;;;;;4.20;3.80;;;5.50;49.10;;;;;;4899873;29;20443;-68
2024/01/21 03:36:57;;;;;;;3.80;3.20;;;5.50;48.90;;;;;;4900348;29;20520;-68
2024/01/21 03:39:22;;;;;;;3.80;3.50;;;5.50;48.20;;;;;;4888601;29;20185;-68
2024/01/21 03:41:48;;;;;;;3.50;3.30;;;5.50;48.60;;;;;;4886905;29;20260;-68
2024/01/21 03:44:14;;;;;;;3.93;3.63;;;5.50;48.30;;;;;;4894710;29;20428;-68
2024/01/21 03:46:40;;;;;;;4.67;3.33;;;5.50;48.20;;;;;;4874554;29;20884;-68
2024/01/21 03:49:06;;;;;;;3.90;3.40;;;5.60;48.10;;;;;;4896098;29;20464;-68
2024/01/21 03:51:32;;;;;;;3.67;3.40;;;5.60;48.60;;;;;;4899619;29;20199;-68
2024/01/21 03:53:57;;;;;;;3.70;3.40;;;5.60;48.50;;;;;;4900363;29;20697;-68
2024/01/21 03:56:23;;;;;;;4.10;3.43;;;5.60;48.90;;;;;;4899242;29;20248;-67
2024/01/21 03:58:49;;;;;;;4.00;3.70;;;5.60;48.20;;;;;;4900267;29;20195;-68
2024/01/21 04:01:14;;;;;;;4.23;3.30;;;5.60;47.90;;;;;;4898401;29;20263;-68
2024/01/21 04:03:41;;;;;;;4.20;3.50;;;5.60;47.20;;;;;;4889676;29;20190;-67
2024/01/21 04:06:06;;;;;;;3.60;3.30;;;5.40;47.50;;;;;;4885907;29;20191;-68
2024/01/21 04:08:33;;;;;;;6.77;3.33;;;5.40;47.10;;;;;;4890212;29;20424;-67
2024/01/21 04:10:59;;;;;;;3.77;3.33;;;5.50;47.50;;;;;;4899894;29;20232;-67
2024/01/21 04:13:25;;;;;;;3.03;2.83;;;5.60;47.40;;;;;;4882867;29;20421;-68
2024/01/21 04:15:50;;;;;;;3.47;3.17;;;5.50;47.10;;;;;;4881171;29;20182;-68
2024/01/21 04:18:16;;;;;;;3.77;3.47;;;5.40;47.60;;;;;;4885418;29;20667;-67
2024/01/21 04:20:42;;;;;;;3.80;3.50;;;5.50;47.60;;;;;;4894687;29;20172;-68
2024/01/21 04:23:08;;;;;;;3.97;3.65;;;5.50;47.80;;;;;;4889441;29;20236;-68
2024/01/21 04:25:34;;;;;;;3.83;3.53;;;5.50;47.80;;;;;;4897103;29;20640;-68
2024/01/21 04:27:59;;;;;;;3.43;3.23;;;5.60;47.80;;;;;;4899486;29;20275;-68
2024/01/21 04:30:25;;;;;;;3.90;3.60;;;5.60;48.00;;;;;;4881070;29;20210;-67
2024/01/21 04:32:51;;;;;;;3.93;3.63;;;5.30;47.20;;;;;;4899378;29;20176;-68
2024/01/21 04:35:17;;;;;;;4.40;4.00;;;5.40;47.80;;;;;;4882836;29;20604;-68
2024/01/21 04:37:43;;;;;;;4.30;4.00;;;5.30;47.50;;;;;;4882020;29;20172;-68
2024/01/21 04:40:09;;;;;;;4.20;3.70;;;5.40;47.90;;;;;;4899747;29;20206;-68
2024/01/21 04:42:35;;;;;;;3.30;3.10;;;5.30;47.90;;;;;;4898352;29;20476;-68
2024/01/21 04:45:02;;;;;;;3.80;3.40;;;5.30;48.00;;;;;;4894122;29;20428;-69
2024/01/21 04:47:27;;;;;;;4.68;4.18;;;5.30;48.40;;;;;;4892968;29;20567;-68
2024/01/21 04:49:53;;;;;;;5.17;3.87;;;5.40;48.30;;;;;;4898826;29;20219;-67
2024/01/21 04:52:20;;;;;;;4.17;3.60;;;5.20;48.00;;;;;;4881157;29;20212;-68
2024/01/21 04:54:45;;;;;;;4.63;4.17;;;5.30;48.40;;;;;;4879989;29;20268;-68
2024/01/21 04:57:11;;;;;;;5.30;4.30;;;5.10;48.30;;;;;;4880614;29;21005;-68
2024/01/21 04:59:37;;;;;;;4.20;3.90;;;5.10;48.80;;;;;;4879793;29;20184;-62
2024/01/21 05:02:03;;;;;;;4.07;3.70;;;5.10;48.70;;;;;;4898749;29;20538;-67
2024/01/21 05:04:28;;;;;;;4.40;4.00;;;5.00;48.30;;;;;;4898705;29;20231;-67
2024/01/21 05:06:54;;;;;;;4.43;3.93;;;5.10;48.60;;;;;;4899698;29;20424;-67
2024/01/21 05:09:20;;;;;;;4.10;3.80;;;5.00;48.50;;;;;;4899492;29;20649;-68
2024/01/21 05:11:45;;;;;;;3.50;3.30;;;5.20;48.90;;;;;;4893902;29;20227;-67
2024/01/21 05:14:11;;;;;;;4.47;4.07;;;5.00;48.60;;;;;;4881970;29;20216;-68
2024/01/21 05:16:40;;;;;;;4.03;3.73;;;4.80;49.20;;;;;;4885326;29;20674;-68
2024/01/21 05:19:06;;;;;;;4.03;3.72;;;4.80;49.20;;;;;;4890720;29;20324;-68
2024/01/21 05:21:32;;;;;;;4.87;4.43;;;4.90;49.20;;;;;;4866778;29;20217;-68
2024/01/21 05:23:57;;;;;;;4.53;4.13;;;4.90;49.10;;;;;;4891822;29;20210;-65
2024/01/21 05:26:23;;;;;;;3.87;3.57;;;5.00;49.40;;;;;;4887953;29;20604;-61
2024/01/21 05:28:49;;;;;;;4.37;3.97;;;4.80;49.10;;;;;;4898162;29;20215;-68
2024/01/21 05:31:15;;;;;;;4.27;3.87;;;4.70;49.50;;;;;;4896174;29;20183;-68
2024/01/21 05:33:40;;;;;;;4.90;4.40;;;4.70;49.60;;;;;;4895848;29;20423;-67
2024/01/21 05:36:09;;;;;;;4.53;3.83;;;4.80;49.80;;;;;;4873614;29;20180;-67
2024/01/21 05:38:34;;;;;;;6.53;5.32;;;4.50;49.30;;;;;;4878963;29;20176;-68
2024/01/21 05:41:00;;;;;;;5.10;4.60;;;4.50;50.10;;;;;;4880642;29;20538;-68
2024/01/21 05:43:26;;;;;;;4.63;3.97;;;4.70;50.40;;;;;;4861942;29;20240;-61
2024/01/21 05:45:51;;;;;;;5.10;4.50;;;4.50;50.70;;;;;;4884394;29;20206;-68
2024/01/21 05:48:17;;;;;;;4.97;4.47;;;4.60;50.60;;;;;;4898073;29;20612;-67
2024/01/21 05:50:43;;;;;;;5.80;4.90;;;4.60;50.80;;;;;;4897381;29;20418;-68
2024/01/21 05:53:09;;;;;;;5.20;4.80;;;4.60;50.60;;;;;;4897891;29;20180;-67
2024/01/21 05:55:34;;;;;;;4.80;4.33;;;4.60;51.00;;;;;;4897222;29;20184;-67
2024/01/21 05:58:00;;;;;;;5.43;4.93;;;4.60;51.30;;;;;;4892736;29;20231;-68
2024/01/21 06:00:26;;;;;;;5.13;4.63;;;4.60;51.10;;;;;;4886623;29;20302;-60
2024/01/21 06:02:53;;;;;;;6.35;4.93;;;4.40;51.20;;;;;;4897064;29;20210;-67
2024/01/21 06:05:20;;;;;;;6.83;5.83;;;4.30;51.60;;;;;;4897937;29;20566;-68
2024/01/21 06:07:46;;;;;;;6.18;5.43;;;4.40;51.90;;;;;;4897399;29;20175;-68
2024/01/21 06:10:12;;;;;;;8.17;5.30;;;4.50;52.30;;;;;;4893724;29;20274;-67
2024/01/21 06:12:37;;;;;;;7.43;5.57;;;4.50;52.30;;;;;;4883838;29;20491;-68
2024/01/21 06:15:04;;;;;;;6.00;5.40;;;4.50;52.00;;;;;;4879284;29;20207;-68
2024/01/21 06:17:30;;;;;;;4.65;4.22;;;4.20;51.70;;;;;;4878683;29;20666;-65
2024/01/21 06:19:57;;;;;;;5.80;4.83;;;4.10;52.10;;;;;;4890659;29;20190;-66
2024/01/21 06:22:22;;;;;;;5.68;5.00;;;4.10;53.10;;;;;;4882107;29;20206;-68
2024/01/21 06:24:48;;;;;;;5.53;4.83;;;4.10;52.90;;;;;;4886199;29;20264;-67
2024/01/21 06:27:14;;;;;;;6.47;5.00;;;4.10;52.90;;;;;;4886801;29;20184;-67
2024/01/21 06:29:44;;;;;;;5.63;5.07;;;3.90;53.30;;;;;;4877801;29;20218;-67
2024/01/21 06:32:10;;;;;;;8.00;5.30;;;3.70;54.00;;;;;;4879285;29;20406;-67
2024/01/21 06:34:35;;;;;;;7.83;5.70;;;4.10;55.50;;;;;;4886094;29;20179;-66
2024/01/21 06:37:01;;;;;;;7.07;5.37;;;4.20;54.60;;;;;;4886809;29;20194;-67
2024/01/21 06:39:27;;;;;;;6.00;5.50;;;4.30;54.30;;;;;;4896812;29;20179;-61
2024/01/21 06:41:53;;;;;;;6.70;5.03;;;4.50;54.10;;;;;;4892500;29;20234;-67
2024/01/21 06:44:18;;;;;;;6.67;5.57;;;4.60;54.20;;;;;;4895035;29;20287;-66
2024/01/21 06:46:44;;;;;;;7.47;5.67;;;4.60;54.90;;;;;;4892491;29;20175;-66
2024/01/21 06:49:10;;;;;;;6.47;5.55;;;4.70;54.20;;;;;;4884392;29;20676;-68
2024/01/21 06:51:54;;;;;;;7.75;5.13;;;4.70;54.30;;;;;;4878083;29;20194;-65
2024/01/21 06:54:20;;;;;;;7.43;5.43;;;4.60;54.50;;;;;;4880244;29;20544;-65
2024/01/21 06:56:46;;;;;;;7.18;5.50;;;4.40;54.80;;;;;;4896337;29;20250;-67
2024/01/21 06:59:12;;;;;;;6.50;5.90;;;4.20;55.70;;;;;;4896933;29;20179;-66
2024/01/21 07:01:38;;;;;;;5.60;5.00;;;4.30;56.00;;;;;;4896365;29;20427;-66
2024/01/21 07:04:04;;;;;;;6.60;5.80;;;4.40;56.40;;;;;;4894352;29;20192;-67
2024/01/21 07:06:29;;;;;;;7.43;6.13;;;4.40;56.40;;;;;;4878091;29;20428;-61
2024/01/21 07:08:55;;;;;;;5.83;5.00;;;4.20;56.20;;;;;;4877919;29;20196;-67
2024/01/21 07:11:21;;;;;;;8.47;5.47;;;4.30;56.60;;;;;;4878438;29;20188;-67
2024/01/21 07:13:47;;;;;;;6.85;5.45;;;4.50;57.80;;;;;;4888901;29;20414;-67
2024/01/21 07:16:13;;;;;;;6.37;5.57;;;4.50;57.50;;;;;;4897003;29;20232;-67
2024/01/21 07:18:39;;;;;;;7.20;5.37;;;4.70;57.90;;;;;;4896170;29;20223;-66
2024/01/21 07:21:04;;;;;;;8.67;6.33;;;4.80;57.40;;;;;;4887204;29;20927;-67
2024/01/21 07:23:30;;;;;;;8.30;6.00;;;4.80;58.00;;;;;;4893019;29;20625;-60
2024/01/21 07:25:56;;;;;;;6.87;6.17;;;4.90;57.40;;;;;;4879684;29;20191;-68
2024/01/21 07:28:22;;;;;;;6.00;5.40;;;4.70;56.60;;;;;;4886109;29;20196;-67
2024/01/21 07:30:48;;;;;;;8.17;6.03;;;4.80;57.80;;;;;;4883127;29;20223;-67
2024/01/21 07:33:14;;;;;;;7.00;5.77;;;4.90;58.10;;;;;;4896952;29;20171;-67
2024/01/21 07:35:39;;;;;;;8.35;6.45;;;5.00;57.50;;;;;;4896057;29;20183;-67
2024/01/21 07:38:05;;;;;;;6.43;5.27;;;5.10;58.00;;;;;;4886192;29;20227;-67
2024/01/21 07:40:34;;;;;;;7.00;6.30;;;5.20;57.20;;;;;;4887232;29;20219;-60
2024/01/21 07:43:00;;;;;;;7.88;6.47;;;5.10;57.70;;;;;;4885429;29;20187;-68
2024/01/21 07:45:26;;;;;;;6.00;5.27;;;5.20;57.20;;;;;;4893809;29;20605;-67
2024/01/21 07:47:51;;;;;;;6.53;5.87;;;5.20;56.50;;;;;;4884522;29;20184;-68
2024/01/21 07:50:17;;;;;;;7.00;5.70;;;5.30;56.90;;;;;;4888912;29;20214;-63
2024/01/21 07:52:43;;;;;;;7.40;6.10;;;5.40;57.20;;;;;;4892600;29;20191;-63
2024/01/21 07:55:09;;;;;;;6.67;5.40;;;5.40;56.20;;;;;;4882595;29;20194;-63
2024/01/21 07:57:34;;;;;;;6.70;6.00;;;5.40;56.10;;;;;;4892594;29;20475;-61
2024/01/21 08:00:00;;;;;;;11.27;7.40;;;5.40;55.90;;;;;;4891032;29;20663;-63
2024/01/21 08:02:27;;;;;;;7.87;6.30;;;5.40;56.50;;;;;;4893370;29;20188;-62
2024/01/21 08:04:53;;;;;;;7.68;6.30;;;5.40;56.00;;;;;;4892036;29;20877;-63
2024/01/21 08:07:19;;;;;;;7.50;5.95;;;5.50;56.90;;;;;;4896665;29;20192;-64
2024/01/21 08:09:45;;;;;;;8.27;6.10;;;5.40;55.90;;;;;;4899285;29;20217;-63
2024/01/21 08:12:11;;;;;;;8.47;6.67;;;5.40;56.10;;;;;;4883187;29;20199;-64
2024/01/21 08:14:36;;;;;;;7.40;6.40;;;5.50;56.20;;;;;;4899232;29;20179;-62
2024/01/21 08:17:02;;;;;;;8.97;6.17;;;5.50;55.50;;;;;;4899994;29;20530;-63
2024/01/21 08:19:28;;;;;;;7.50;6.32;;;5.50;55.70;;;;;;4886646;29;20655;-63
2024/01/21 08:21:54;;;;;;;7.30;6.23;;;5.70;57.60;;;;;;4886540;29;20173;-65
2024/01/21 08:24:20;;;;;;;9.60;7.00;;;5.70;55.90;;;;;;4886154;29;20220;-65
2024/01/21 08:26:45;;;;;;;8.47;7.63;;;5.60;56.10;;;;;;4894970;29;20184;-65
2024/01/21 08:29:11;;;;;;;7.77;6.97;;;5.60;55.00;;;;;;4893101;29;20212;-69
2024/01/21 08:31:44;;;;;;;7.23;5.90;;;5.50;55.00;;;;;;4893754;29;20559;-65
2024/01/21 08:34:10;;;;;;;8.63;6.93;;;5.40;55.30;;;;;;4887234;29;20271;-65
2024/01/21 08:36:36;;;;;;;8.98;8.10;;;5.40;56.10;;;;;;4887264;29;20424;-62
2024/01/21 08:39:05;;;;;;;8.93;7.97;;;6.00;93.60;;;;;;4882730;29;20568;-63
2024/01/21 08:41:34;;;;;;;8.97;7.57;;;7.10;99.90;;;;;;4897793;29;20453;-63
2024/01/21 08:44:00;;;;;;;8.07;7.27;;;7.70;99.90;;;;;;4888462;29;20438;-62
2024/01/21 08:46:26;;;;;;;7.83;6.60;;;7.70;90.80;;;;;;4900284;29;20468;-63
2024/01/21 08:48:52;;;;;;;8.30;7.40;;;8.40;93.50;;;;;;4900999;29;20858;-62
2024/01/21 08:51:18;;;;;;;7.93;6.57;;;9.10;98.80;;;;;;4903630;29;20196;-62
2024/01/21 08:53:43;;;;;;;9.07;7.50;;;9.70;93.80;;;;;;4908392;29;20206;-62
2024/01/21 08:56:09;;;;;;;10.33;8.10;;;10.20;90.30;;;;;;4907285;29;20516;-62
2024/01/21 08:58:35;;;;;;;11.40;9.30;;;10.60;90.40;;;;;;4914100;29;20174;-62
2024/01/21 09:01:01;;;;;;;9.13;8.23;;;11.10;91.60;;;;;;4911352;29;20608;-61
2024/01/21 09:03:27;;;;;;;10.40;9.00;;;11.40;89.00;;;;;;4903058;29;20207;-62
2024/01/21 09:05:52;;;;;;;11.47;10.20;;;11.60;79.00;;;;;;4894122;29;20511;-62
2024/01/21 09:08:18;;;;;;;8.60;7.70;;;11.90;76.60;;;;;;4911034;29;20221;-62
2024/01/21 09:10:44;;;;;;;8.20;7.40;;;12.00;64.90;;;;;;4897320;29;20296;-62
2024/01/21 09:13:10;;;;;;;9.00;8.10;;;12.00;57.00;;;;;;4913573;29;20209;-62
2024/01/21 09:15:35;;;;;;;9.53;8.53;;;11.90;64.50;;;;;;4917041;29;20186;-62
2024/01/21 09:18:01;;;;;;;9.23;8.33;;;11.90;61.80;;;;;;4910448;29;20555;-62
2024/01/21 09:20:27;;;;;;;9.50;8.57;;;11.80;57.20;;;;;;4905470;29;20195;-62
2024/01/21 09:22:53;;;;;;;8.47;7.73;;;12.10;62.60;;;;;;4911947;29;20426;-62
2024/01/21 09:25:18;;;;;;;10.10;8.77;;;12.30;60.40;;;;;;4893338;29;20195;-62
2024/01/21 09:27:44;;;;;;;9.93;8.37;;;12.40;62.50;;;;;;4864146;29;20186;-62
2024/01/21 09:30:10;;;;;;;11.43;9.90;;;12.60;59.10;;;;;;4882016;29;20214;-61
2024/01/21 09:32:36;;;;;;;10.07;9.10;;;12.70;53.60;;;;;;4866085;29;20198;-61
2024/01/21 09:35:02;;;;;;;9.23;8.37;;;12.80;52.90;;;;;;4890777;29;20788;-62
2024/01/21 09:37:28;;;;;;;9.37;8.43;;;13.00;56.90;;;;;;4898476;29;20186;-61
2024/01/21 09:39:53;;;;;;;10.70;8.30;;;12.80;54.40;;;;;;4895966;29;20640;-62
2024/01/21 09:42:19;;;;;;;10.03;8.90;;;12.80;53.90;;;;;;4896884;29;20280;-62
2024/01/21 09:44:46;;;;;;;10.10;9.10;;;12.30;51.80;;;;;;4896154;29;20188;-61
2024/01/21 09:47:12;;;;;;;10.37;9.40;;;12.70;50.50;;;;;;4909125;29;20244;-61
2024/01/21 09:49:38;;;;;;;10.03;9.03;;;12.50;51.80;;;;;;4899626;29;20507;-61
2024/01/21 09:52:05;;;;;;;10.10;8.70;;;12.40;52.80;;;;;;4897886;29;20459;-61
2024/01/21 09:54:31;;;;;;;9.13;7.77;;;12.00;48.00;;;;;;4896449;29;20468;-61
2024/01/21 09:56:57;;;;;;;8.87;7.80;;;12.00;52.80;;;;;;4894169;29;20556;-62
2024/01/21 09:59:23;;;;;;;8.23;7.20;;;12.10;51.50;;;;;;4906969;29;20449;-61
2024/01/21 10:01:49;;;;;;;9.50;8.57;;;12.40;52.20;;;;;;4905941;29;20464;-61
2024/01/21 10:04:14;;;;;;;9.20;7.80;;;12.70;55.80;;;;;;4902926;29;20186;-61
2024/01/21 10:06:41;;;;;;;9.27;8.23;;;13.10;53.60;;;;;;4904654;29;20196;-62
2024/01/21 10:09:21;;;;;;;9.20;8.23;;;12.30;49.40;;;;;;4890960;29;20211;-62
2024/01/21 10:11:57;;;;;;;8.00;7.20;;;12.30;51.30;;;;;;4897379;29;20762;-62
2024/01/21 10:14:26;;;;;;;8.53;7.70;;;12.40;53.80;;;;;;4908182;29;20410;-62
2024/01/21 10:16:51;;;;;;;8.60;7.70;;;12.40;54.80;;;;;;4897372;29;20449;-62
2024/01/21 10:19:27;;;;;;;9.87;8.87;;;12.60;53.60;;;;;;4906057;29;20952;-62
2024/01/21 10:22:10;;;;;;;9.30;8.40;;;13.00;55.40;;;;;;4903400;29;20240;-62
2024/01/21 10:24:40;;;;;;;8.60;7.73;;;13.20;54.60;;;;;;4904596;29;20430;-62
2024/01/21 10:27:07;;;;;;;8.10;7.30;;;13.30;53.40;;;;;;4903821;29;20919;-61
2024/01/21 10:29:41;;;;;;;9.00;7.60;;;13.50;53.50;;;;;;4904995;29;20805;-61
2024/01/21 10:32:10;;;;;;;8.97;8.17;;;12.90;52.40;;;;;;4905464;29;20412;-62
2024/01/21 10:34:43;;;;;;;8.87;8.07;;;12.70;52.10;;;;;;4904485;29;20947;-62
2024/01/21 10:37:09;;;;;;;8.40;7.70;;;12.60;53.30;;;;;;4906062;29;20458;-63
2024/01/21 10:39:37;;;;;;;10.00;9.07;;;12.90;57.20;;;;;;4902786;29;20426;-62
2024/01/21 10:42:05;;;;;;;9.03;8.10;;;12.90;55.50;;;;;;4900310;29;20790;-62
2024/01/21 10:44:31;;;;;;;8.60;7.80;;;13.10;55.40;;;;;;4904514;29;20432;-62
2024/01/21 10:46:59;;;;;;;25.63;21.33;;;13.20;54.60;;;;;;4907637;29;20425;-62
2024/01/21 10:49:25;;;;;;;435.83;268.10;;;13.40;55.40;;;;;;4887181;29;20951;-61
2024/01/21 10:51:54;;;;;;;28.90;22.03;;;13.60;55.70;;;;;;4878473;29;20446;-62
2024/01/21 10:54:20;;;;;;;11.00;9.57;;;13.70;55.60;;;;;;4902203;29;20193;-62
2024/01/21 10:56:48;;;;;;;12.10;10.27;;;13.70;55.40;;;;;;4892706;29;20991;-62
2024/01/21 10:59:14;;;;;;;10.70;9.70;;;13.70;57.00;;;;;;4906462;29;20437;-69
2024/01/21 11:01:42;;;;;;;9.10;8.20;;;13.60;53.50;;;;;;4902530;29;20480;-63
2024/01/21 11:04:12;;;;;;;9.27;8.27;;;12.90;51.10;;;;;;4877003;29;20426;-68
2024/01/21 11:06:48;;;;;;;9.43;8.13;;;11.80;51.70;;;;;;4900806;29;20950;-68
2024/01/21 11:09:22;;;;;;;8.00;7.20;;;10.90;54.20;;;;;;4904138;29;20893;-68
2024/01/21 11:11:52;;;;;;;9.50;8.27;;;10.30;55.90;;;;;;4905669;29;20761;-69
2024/01/21 11:14:38;;;;;;;9.77;8.40;;;9.90;59.10;;;;;;4880171;29;20492;-69
2024/01/21 11:17:05;;;;;;;8.60;7.70;;;9.50;60.20;;;;;;4899011;29;20421;-68
2024/01/21 11:19:53;;;;;;;9.00;7.67;;;9.00;61.50;;;;;;4906480;29;20436;-68
2024/01/21 11:22:22;;;;;;;8.40;7.60;;;8.80;62.50;;;;;;4896273;29;20461;-68
2024/01/21 11:24:48;;;;;;;202.43;116.03;;;8.50;64.00;;;;;;4902008;29;20468;-68
2024/01/21 11:27:30;;;;;;;234.87;138.37;;;8.30;67.00;;;;;;4891532;29;20434;-68
2024/01/21 11:30:00;;;;;;;9.90;8.90;;;8.20;68.00;;;;;;4896481;29;20449;-68
2024/01/21 11:32:28;;;;;;;9.40;7.60;;;8.10;74.20;;;;;;4901777;29;20451;-68
2024/01/21 11:34:55;;;;;;;9.00;8.10;;;8.10;71.90;;;;;;4904514;29;20422;-68
2024/01/21 11:37:22;;;;;;;11.23;9.20;;;8.00;73.10;;;;;;4906238;29;20776;-69
2024/01/21 11:39:49;;;;;;;8.00;7.20;;;7.90;72.90;;;;;;4902771;29;20425;-66
2024/01/21 11:42:15;;;;;;;7.73;6.90;;;7.80;72.20;;;;;;4906025;29;20483;-70
2024/01/21 11:44:41;;;;;;;10.40;7.70;;;7.80;74.70;;;;;;4881229;29;20447;-68
2024/01/21 11:47:08;;;;;;;12.43;8.20;;;7.70;75.50;;;;;;4897605;29;20992;-70
2024/01/21 11:49:36;;;;;;;10.70;7.50;;;7.70;75.70;;;;;;4880429;29;20450;-69
2024/01/21 11:52:07;;;;;;;7.87;6.83;;;7.60;78.50;;;;;;4876477;29;21052;-69
2024/01/21 11:54:34;;;;;;;8.67;7.77;;;7.70;78.80;;;;;;4884212;29;20439;-69
2024/01/21 11:57:01;;;;;;;8.73;7.80;;;7.70;78.90;;;;;;4888872;29;20463;-68
2024/01/21 11:59:27;;;;;;;10.73;8.37;;;7.60;79.40;;;;;;4895065;29;20459;-69
2024/01/21 12:01:58;;;;;;;11.00;8.47;;;7.50;80.40;;;;;;4895913;29;20518;-68
2024/01/21 12:04:25;;;;;;;9.40;8.27;;;7.40;81.60;;;;;;4878379;29;20446;-69
2024/01/21 12:06:52;;;;;;;9.87;8.00;;;7.20;83.50;;;;;;4896702;29;20442;-67
2024/01/21 12:09:19;;;;;;;8.20;7.27;;;7.20;84.50;;;;;;4897592;29;20450;-68
2024/01/21 12:11:47;;;;;;;8.37;7.53;;;7.10;86.00;;;;;;4906680;29;20430;-63
2024/01/21 12:14:13;;;;;;;11.10;7.50;;;7.10;89.40;;;;;;4898946;29;20414;-69
2024/01/21 12:16:41;;;;;;;10.10;8.23;;;7.10;90.20;;;;;;4899717;29;20463;-69
2024/01/21 12:19:07;;;;;;;10.07;8.30;;;7.10;89.90;;;;;;4907526;29;20729;-69
2024/01/21 12:21:33;;;;;;;8.83;7.77;;;6.90;90.90;;;;;;4885081;29;20465;-69
2024/01/21 12:24:02;;;;;;;10.13;8.93;;;6.80;90.70;;;;;;4905682;29;20438;-69
2024/01/21 12:26:28;;;;;;;9.50;7.57;;;6.90;91.20;;;;;;4902660;29;20434;-70
2024/01/21 12:28:58;;;;;;;9.10;8.07;;;6.80;91.60;;;;;;4902033;29;20914;-69
2024/01/21 12:31:32;;;;;;;11.33;7.83;;;7.00;91.50;;;;;;4909957;29;20518;-69
2024/01/21 12:33:59;;;;;;;12.27;8.63;;;7.00;90.80;;;;;;4902792;29;20430;-68
2024/01/21 12:36:25;;;;;;;9.67;8.17;;;6.90;90.10;;;;;;4906079;29;20840;-69
2024/01/21 12:38:52;;;;;;;9.57;7.87;;;6.90;90.00;;;;;;4903178;29;20504;-68
2024/01/21 12:41:19;;;;;;;12.43;8.60;;;6.80;90.30;;;;;;4901519;29;20451;-69
2024/01/21 12:43:47;;;;;;;9.10;8.17;;;6.80;90.70;;;;;;4908400;29;20829;-63
2024/01/21 12:46:13;;;;;;;10.87;8.20;;;6.80;91.00;;;;;;4888590;29;20433;-67
2024/01/21 12:48:38;;;;;;;10.67;8.70;;;6.90;91.60;;;;;;4900582;29;20427;-69